Time;durP1;ratioP1;P1;durP2;ratioP2;P2;SDS_P1;SDS_P2;PMS_P1;PMS_P2;Temp;Humidity;BMP_temperature;BMP_pressure;BME280_temperature;BME280_humidity;BME280_pressure;Samples;Min_cycle;Max_cycle;Signal;HPM_P1;HPM_P2
2023/12/06 00:01:56;;;;;;;12.60;6.93;;;;;;;-143.21;82.87;73045.97;5027967;28;20198;-78
2023/12/06 00:04:22;;;;;;;10.57;6.40;;;;;;;-143.21;81.77;73038.03;5031098;28;20202;-79
2023/12/06 00:06:50;;;;;;;12.33;7.17;;;;;;;-143.21;82.29;73045.97;5031187;28;20226;-79
2023/12/06 00:09:18;;;;;;;10.00;6.60;;;;;;;-143.21;82.47;73055.91;5015620;28;20626;-79
2023/12/06 00:11:45;;;;;;;11.27;6.60;;;;;;;-143.21;82.83;73055.91;5011443;28;20682;-86
2023/12/06 00:14:12;;;;;;;11.07;6.43;;;;;;;-143.21;82.75;73051.94;5011446;28;20685;-76
2023/12/06 00:16:39;;;;;;;11.23;6.73;;;;;;;-143.21;82.43;73045.97;5030766;28;20217;-80
2023/12/06 00:19:06;;;;;;;9.70;6.20;;;;;;;-143.21;82.69;73051.94;5031472;28;20260;-77
2023/12/06 00:21:33;;;;;;;10.73;6.57;;;;;;;-143.21;82.57;73069.78;5030709;28;20716;-79
2023/12/06 00:24:04;;;;;;;11.13;6.53;;;;;;;-143.21;82.69;73111.44;5031334;28;20668;-80
2023/12/06 00:26:31;;;;;;;11.17;6.13;;;;;;;-143.21;83.02;73129.28;5026721;28;20222;-80
2023/12/06 00:28:57;;;;;;;11.43;6.60;;;;;;;-143.21;84.85;73133.25;5011265;28;20201;-77
2023/12/06 00:31:24;;;;;;;10.17;6.33;;;;;;;-143.21;85.13;73115.41;5011311;28;20193;-79
2023/12/06 00:33:51;;;;;;;9.73;6.27;;;;;;;-143.21;86.01;73097.56;5011403;28;20720;-78
2023/12/06 00:36:18;;;;;;;10.30;6.43;;;;;;;-143.21;85.58;73079.69;5011845;28;20193;-80
2023/12/06 00:38:45;;;;;;;10.20;5.97;;;;;;;-143.21;85.23;73061.84;5011218;28;20206;-81
2023/12/06 00:41:13;;;;;;;9.33;6.10;;;;;;;-143.21;85.27;73047.97;5011754;28;20198;-80
2023/12/06 00:43:40;;;;;;;11.97;6.50;;;;;;;-143.21;84.27;73044.00;5011547;28;20199;-80
2023/12/06 00:46:07;;;;;;;10.70;6.07;;;;;;;-143.21;84.34;73030.09;5026015;28;20228;-80
2023/12/06 00:48:36;;;;;;;9.57;5.77;;;;;;;-143.21;84.49;73032.09;5031154;28;20225;-80
2023/12/06 00:51:03;;;;;;;10.93;6.33;;;;;;;-143.21;84.44;73038.03;5031069;28;20236;-80
2023/12/06 00:53:30;;;;;;;9.50;6.43;;;;;;;-143.21;83.52;73065.81;5031957;28;20202;-80
2023/12/06 00:55:57;;;;;;;11.73;6.37;;;;;;;-143.21;83.94;73089.63;5034848;28;20216;-80
2023/12/06 00:58:25;;;;;;;11.17;6.37;;;;;;;-143.21;85.19;73083.66;5034895;28;20197;-81
2023/12/06 01:00:52;;;;;;;10.10;6.80;;;;;;;-143.21;85.62;73065.81;5035127;28;20199;-79
2023/12/06 01:03:19;;;;;;;10.17;6.27;;;;;;;-143.21;86.11;73063.84;5035243;28;20198;-81
2023/12/06 01:05:45;;;;;;;10.67;6.40;;;;;;;-143.21;85.55;73049.94;5034799;28;20221;-80
2023/12/06 01:08:12;;;;;;;8.93;6.10;;;;;;;-143.21;85.83;73044.00;5034916;28;20204;-79
2023/12/06 01:10:42;;;;;;;11.13;6.43;;;;;;;-143.21;85.56;73038.03;5035421;28;20209;-80
2023/12/06 01:13:09;;;;;;;10.80;6.40;;;;;;;-143.21;85.19;73024.16;5035355;28;20226;-80
2023/12/06 01:15:37;;;;;;;12.13;6.77;;;;;;;-143.21;84.61;73024.16;5035136;28;20205;-80
2023/12/06 01:18:04;;;;;;;9.97;5.90;;;;;;;-143.21;84.67;73014.25;5034656;28;20198;-81
2023/12/06 01:20:31;;;;;;;11.37;6.30;;;;;;;-143.21;84.02;73004.31;5034736;28;20204;-79
2023/12/06 01:22:58;;;;;;;10.13;6.23;;;;;;;-143.21;83.51;73016.22;5034352;28;20206;-78
2023/12/06 01:25:25;;;;;;;10.30;6.50;;;;;;;-143.21;83.99;73071.75;5034578;28;20236;-78
2023/12/06 01:27:51;;;;;;;10.10;6.40;;;;;;;-143.21;85.02;73067.78;5034216;28;20576;-80
2023/12/06 01:30:18;;;;;;;12.47;6.90;;;;;;;-143.21;85.59;73055.91;5034509;28;20565;-80
2023/12/06 01:32:46;;;;;;;11.73;7.07;;;;;;;-143.21;85.50;73044.00;5034368;28;20668;-79
2023/12/06 01:35:13;;;;;;;12.83;7.53;;;;;;;-143.21;85.70;73032.09;5033871;28;20197;-80
2023/12/06 01:37:40;;;;;;;11.63;7.87;;;;;;;-143.21;85.55;73032.09;5034112;28;20201;-80
2023/12/06 01:40:08;;;;;;;15.57;8.13;;;;;;;-143.21;85.30;73028.13;5034174;28;20203;-80
2023/12/06 01:42:35;;;;;;;12.33;7.73;;;;;;;-143.21;85.36;73020.19;5033642;28;20201;-80
2023/12/06 01:45:02;;;;;;;14.17;8.83;;;;;;;-143.21;84.66;73008.28;5028033;28;20204;-80
2023/12/06 01:47:31;;;;;;;12.73;8.07;;;;;;;-143.21;84.58;73000.34;5014336;28;20233;-79
2023/12/06 01:50:02;;;;;;;12.80;7.73;;;;;;;-143.21;83.98;72994.41;5014292;28;20191;-79
2023/12/06 01:52:29;;;;;;;11.33;6.80;;;;;;;-143.21;83.32;72982.50;5014092;28;20199;-79
2023/12/06 01:54:58;;;;;;;9.07;6.00;;;;;;;-143.21;83.70;72982.50;5013948;28;20203;-78
2023/12/06 01:57:26;;;;;;;9.30;5.73;;;;;;;-143.21;84.13;72978.53;5013629;28;20741;-79
2023/12/06 01:59:54;;;;;;;8.83;5.50;;;;;;;-143.21;83.81;72974.56;5013274;28;20679;-79
2023/12/06 02:02:21;;;;;;;8.63;5.67;;;;;;;-143.21;83.63;72966.63;5013454;28;20203;-80
2023/12/06 02:04:48;;;;;;;7.30;5.03;;;;;;;-143.21;82.81;72988.47;5013903;28;20578;-78
2023/12/06 02:07:16;;;;;;;7.97;5.17;;;;;;;-143.21;82.94;73020.19;5013841;28;20229;-79
2023/12/06 02:09:44;;;;;;;7.90;5.10;;;;;;;-143.21;83.96;73036.06;5013828;28;20208;-80
2023/12/06 02:12:11;;;;;;;7.83;4.90;;;;;;;-143.21;84.73;73028.13;5013375;28;20238;-80
2023/12/06 02:14:38;;;;;;;9.23;5.43;;;;;;;-143.21;85.22;73026.16;5016083;28;20295;-80
2023/12/06 02:17:06;;;;;;;7.87;5.50;;;;;;;-143.21;85.33;73004.31;5033176;28;20668;-80
2023/12/06 02:19:33;;;;;;;9.13;5.33;;;;;;;-143.21;84.20;72976.56;5033360;28;20199;-80
2023/12/06 02:22:00;;;;;;;8.53;5.33;;;;;;;-143.21;83.26;72968.63;5033499;28;20207;-80
2023/12/06 02:24:31;;;;;;;9.17;5.60;;;;;;;-143.21;83.79;72960.69;5032931;28;20185;-80
2023/12/06 02:26:59;;;;;;;8.80;5.80;;;;;;;-143.21;82.91;72954.72;5032656;28;20230;-79
2023/12/06 02:29:26;;;;;;;10.43;5.70;;;;;;;-143.21;82.74;72940.84;5032927;28;20197;-79
2023/12/06 02:31:54;;;;;;;9.50;5.63;;;;;;;-143.21;82.60;72930.94;5032934;28;20202;-79
2023/12/06 02:34:23;;;;;;;7.17;5.03;;;;;;;-143.21;82.21;72924.97;5033247;28;20284;-79
2023/12/06 02:36:53;;;;;;;9.67;5.57;;;;;;;-143.21;81.60;72924.97;5032167;28;20191;-78
2023/12/06 02:39:20;;;;;;;8.27;5.40;;;;;;;-143.21;82.01;72924.97;5032626;28;20664;-79
2023/12/06 02:41:47;;;;;;;8.97;5.97;;;;;;;-143.21;81.83;72926.97;5033003;28;20197;-78
2023/12/06 02:44:15;;;;;;;9.87;5.80;;;;;;;-143.21;82.07;72917.06;5033044;28;20202;-78
2023/12/06 02:46:43;;;;;;;9.40;5.30;;;;;;;-143.21;81.79;72930.94;5033037;28;20927;-78
2023/12/06 02:49:10;;;;;;;8.47;4.70;;;;;;;-143.21;81.53;72948.78;5032764;28;20236;-82
2023/12/06 02:51:36;;;;;;;9.73;5.50;;;;;;;-143.21;82.96;72978.53;5033076;28;20195;-83
2023/12/06 02:54:03;;;;;;;7.87;4.90;;;;;;;-143.21;83.57;72970.59;5033463;28;20209;-83
2023/12/06 02:56:30;;;;;;;7.87;4.77;;;;;;;-143.21;83.97;72958.69;5033462;28;20579;-83
2023/12/06 02:58:57;;;;;;;7.87;5.23;;;;;;;-143.21;83.76;72950.78;5033017;28;20581;-83
2023/12/06 03:01:25;;;;;;;9.33;4.77;;;;;;;-143.21;83.74;72928.94;5032732;28;20195;-83
2023/12/06 03:03:52;;;;;;;8.10;5.17;;;;;;;-143.21;83.13;72921.00;5032594;28;20206;-84
2023/12/06 03:06:19;;;;;;;7.63;4.73;;;;;;;-143.21;82.73;72909.13;5032570;28;20678;-84
2023/12/06 03:08:45;;;;;;;9.13;4.87;;;;;;;-143.21;81.82;72909.13;5032568;28;20221;-83
2023/12/06 03:11:12;;;;;;;6.63;4.67;;;;;;;-143.21;81.84;72897.22;5032434;28;20241;-83
2023/12/06 03:13:39;;;;;;;7.17;4.70;;;;;;;-143.21;81.50;72897.22;5032134;28;20207;-80
2023/12/06 03:16:06;;;;;;;8.00;4.47;;;;;;;-143.21;81.38;72889.28;5030801;28;20214;-80
2023/12/06 03:18:35;;;;;;;7.63;4.73;;;;;;;-143.21;80.77;72879.38;5032376;28;20201;-80
2023/12/06 03:21:02;;;;;;;6.97;5.03;;;;;;;-143.21;81.00;72889.28;5031598;28;20202;-81
2023/12/06 03:23:29;;;;;;;8.13;5.33;;;;;;;-143.21;81.43;72891.25;5031418;28;20661;-80
2023/12/06 03:25:55;;;;;;;7.87;4.90;;;;;;;-143.21;81.94;72883.31;5024324;28;20225;-80
2023/12/06 03:28:22;;;;;;;7.07;4.43;;;;;;;-143.21;81.26;72883.31;5021072;28;20241;-81
2023/12/06 03:30:49;;;;;;;6.03;4.00;;;;;;;-143.21;81.29;72879.38;5031936;28;20194;-82
2023/12/06 03:33:16;;;;;;;6.33;4.43;;;;;;;-143.21;80.78;72885.31;5031379;28;20202;-82
2023/12/06 03:35:44;;;;;;;5.43;4.17;;;;;;;-143.21;80.96;72928.94;5031790;28;20271;-82
2023/12/06 03:38:11;;;;;;;6.40;4.37;;;;;;;-143.21;83.29;72952.75;5032015;28;20660;-82
2023/12/06 03:40:39;;;;;;;7.17;4.77;;;;;;;-143.21;83.60;72940.84;5032115;28;20203;-82
2023/12/06 03:43:06;;;;;;;7.20;4.33;;;;;;;-143.21;83.60;72928.94;5032260;28;20201;-83
2023/12/06 03:45:33;;;;;;;6.97;4.90;;;;;;;-143.21;83.45;72919.03;5031619;28;20244;-82
2023/12/06 03:47:59;;;;;;;9.17;4.43;;;;;;;-143.21;82.74;72909.13;5031834;28;20610;-84
2023/12/06 03:50:26;;;;;;;5.77;4.30;;;;;;;-143.21;82.63;72907.13;5031864;28;20197;-83
2023/12/06 03:52:54;;;;;;;7.10;4.17;;;;;;;-143.21;82.28;72905.16;5032101;28;20276;-83
2023/12/06 03:55:21;;;;;;;6.83;4.60;;;;;;;-143.21;81.23;72887.28;5031723;28;20208;-82
2023/12/06 03:57:48;;;;;;;7.70;4.30;;;;;;;-143.21;81.03;72881.34;5032070;28;20640;-82
2023/12/06 04:00:16;;;;;;;6.13;4.33;;;;;;;-143.21;81.76;72877.38;5031433;28;20738;-82
2023/12/06 04:02:43;;;;;;;5.90;4.00;;;;;;;-143.21;80.87;72877.38;5032199;28;20673;-83
2023/12/06 04:05:10;;;;;;;5.53;4.00;;;;;;;-143.21;81.47;72881.34;5031766;28;20279;-83
2023/12/06 04:07:38;;;;;;;5.40;3.73;;;;;;;-143.21;81.09;72879.38;5031429;28;20229;-83
2023/12/06 04:10:08;;;;;;;4.93;3.80;;;;;;;-143.21;81.15;72869.44;5032038;28;20677;-85
2023/12/06 04:12:35;;;;;;;5.53;4.20;;;;;;;-143.21;81.48;72867.47;5031220;28;20344;-75
2023/12/06 04:15:01;;;;;;;6.17;4.17;;;;;;;-143.21;81.58;72871.44;5031510;28;20673;-80
2023/12/06 04:17:28;;;;;;;7.30;3.93;;;;;;;-143.21;81.47;72867.47;5031686;28;20189;-82
2023/12/06 04:19:55;;;;;;;5.97;4.23;;;;;;;-143.21;81.35;72859.53;5031338;28;20193;-83
2023/12/06 04:22:22;;;;;;;7.67;4.13;;;;;;;-143.21;80.95;72855.56;5031404;28;20198;-83
2023/12/06 04:24:49;;;;;;;5.60;4.10;;;;;;;-143.21;80.29;72887.28;5031563;28;20201;-84
2023/12/06 04:27:17;;;;;;;5.40;3.83;;;;;;;-143.21;81.81;72911.09;5031100;28;20217;-84
2023/12/06 04:29:44;;;;;;;8.77;4.30;;;;;;;-143.21;82.99;72911.09;5035233;28;20197;-82
2023/12/06 04:32:11;;;;;;;8.00;4.13;;;;;;;-143.21;83.12;72903.16;5035311;28;20229;-83
2023/12/06 04:34:48;;;;;;;6.53;4.10;;;;;;;-143.21;82.70;72893.25;5035946;28;20280;-82
2023/12/06 04:37:15;;;;;;;6.63;4.23;;;;;;;-143.21;82.73;72881.34;5035465;28;20200;-82
2023/12/06 04:39:42;;;;;;;7.13;4.50;;;;;;;-143.21;82.78;72873.41;5035382;28;20271;-82
2023/12/06 04:42:09;;;;;;;6.07;4.20;;;;;;;-143.21;81.71;72859.53;5035145;28;20245;-82
2023/12/06 04:44:38;;;;;;;6.43;4.57;;;;;;;-143.21;81.74;72855.56;5032895;28;20205;-82
2023/12/06 04:47:05;;;;;;;6.53;4.33;;;;;;;-143.21;81.48;72845.63;5015136;28;20203;-83
2023/12/06 04:49:32;;;;;;;6.33;4.97;;;;;;;-143.21;81.40;72857.53;5017083;28;20209;-85
2023/12/06 04:51:59;;;;;;;9.40;5.20;;;;;;;-143.21;81.56;72841.69;5024162;28;20193;-75
2023/12/06 04:54:26;;;;;;;7.53;5.07;;;;;;;-143.21;81.78;72851.59;5034031;28;20557;-76
2023/12/06 04:56:52;;;;;;;7.43;4.73;;;;;;;-143.21;81.46;72855.56;5034378;28;20751;-76
2023/12/06 04:59:19;;;;;;;9.37;5.57;;;;;;;-143.21;82.33;72863.50;5034731;28;20202;-75
2023/12/06 05:01:47;;;;;;;9.73;5.23;;;;;;;-143.21;82.86;72855.56;5034521;28;20205;-76
2023/12/06 05:04:14;;;;;;;10.40;5.47;;;;;;;-143.21;82.52;72849.59;5034475;28;20273;-76
2023/12/06 05:06:41;;;;;;;9.63;5.50;;;;;;;-143.21;83.01;72861.50;5034337;28;20198;-75
2023/12/06 05:09:08;;;;;;;8.90;5.30;;;;;;;-143.21;83.81;72859.53;5034174;28;20700;-75
2023/12/06 05:11:35;;;;;;;7.73;5.47;;;;;;;-143.21;83.17;72859.53;5044047;28;20232;-75
2023/12/06 05:14:02;;;;;;;8.87;5.50;;;;;;;-143.21;83.37;72895.22;5054284;28;20687;-76
2023/12/06 05:16:29;;;;;;;8.63;5.87;;;;;;;-143.21;85.67;72915.06;5035814;28;20237;-76
2023/12/06 05:18:57;;;;;;;7.50;5.27;;;;;;;-143.21;85.78;72897.22;5033947;28;20564;-76
2023/12/06 05:21:23;;;;;;;9.50;5.77;;;;;;;-143.21;86.51;72887.28;5034040;28;20213;-76
2023/12/06 05:23:50;;;;;;;9.67;5.37;;;;;;;-143.21;86.39;72883.31;5029832;28;20306;-76
2023/12/06 05:26:17;;;;;;;9.83;5.80;;;;;;;-143.21;86.07;72875.41;5029257;28;20205;-74
2023/12/06 05:28:44;;;;;;;8.50;5.60;;;;;;;-143.21;86.35;72871.44;5023892;28;20220;-76
2023/12/06 05:31:11;;;;;;;10.10;5.70;;;;;;;-143.21;86.30;72857.53;5022108;28;20669;-76
2023/12/06 05:33:38;;;;;;;9.73;5.77;;;;;;;-143.21;86.04;72855.56;5025110;28;20199;-76
2023/12/06 05:36:20;;;;;;;10.57;5.00;;;;;;;-143.21;85.62;72849.59;5033501;28;20201;-76
2023/12/06 05:38:46;;;;;;;8.33;5.40;;;;;;;-143.21;86.26;72847.63;5030670;28;20203;-75
2023/12/06 05:41:16;;;;;;;11.60;5.77;;;;;;;-143.21;85.93;72855.56;5033126;28;20210;-75
2023/12/06 05:43:43;;;;;;;8.43;5.30;;;;;;;-143.21;85.74;72843.66;5032982;28;20691;-74
2023/12/06 05:46:12;;;;;;;12.50;5.27;;;;;;;-143.21;85.93;72835.72;5032740;28;20641;-75
2023/12/06 05:48:38;;;;;;;7.93;5.37;;;;;;;-143.21;85.83;72835.72;5033146;28;20222;-75
2023/12/06 05:51:05;;;;;;;11.20;5.20;;;;;;;-143.21;85.71;72839.69;5037833;28;20209;-87
2023/12/06 05:53:33;;;;;;;10.00;5.53;;;;;;;-143.21;86.02;72829.78;5033872;28;20198;-75
2023/12/06 05:56:00;;;;;;;9.53;5.73;;;;;;;-143.21;85.62;72829.78;5025878;28;20322;-75
2023/12/06 05:58:30;;;;;;;9.60;5.77;;;;;;;-143.21;86.41;72809.94;5030633;28;20217;-74
2023/12/06 06:00:57;;;;;;;9.23;5.33;;;;;;;-143.21;86.92;72817.88;5029155;28;20197;-76
2023/12/06 06:03:23;;;;;;;9.83;5.53;;;;;;;-143.21;86.52;72831.75;5032291;28;20574;-76
2023/12/06 06:05:50;;;;;;;9.27;6.10;;;;;;;-143.21;87.64;72839.69;5032726;28;20551;-75
2023/12/06 06:08:17;;;;;;;8.23;5.43;;;;;;;-143.21;87.31;72833.75;5033448;28;20223;-77
2023/12/06 06:10:45;;;;;;;9.27;5.80;;;;;;;-143.21;87.76;72839.69;5033222;28;20241;-75
2023/12/06 06:13:12;;;;;;;9.93;6.37;;;;;;;-143.21;88.01;72827.78;5033463;28;20273;-76
2023/12/06 06:15:39;;;;;;;11.50;6.77;;;;;;;-143.21;87.97;72813.91;5033197;28;20720;-75
2023/12/06 06:18:06;;;;;;;15.70;7.30;;;;;;;-143.21;87.99;72815.88;5033326;28;20221;-76
2023/12/06 06:20:33;;;;;;;15.97;7.57;;;;;;;-143.21;87.38;72807.97;5033074;28;20286;-77
2023/12/06 06:23:00;;;;;;;13.90;7.57;;;;;;;-143.21;87.41;72805.97;5032933;28;20256;-78
2023/12/06 06:25:27;;;;;;;11.27;7.50;;;;;;;-143.21;87.24;72811.94;5033300;28;20206;-76
2023/12/06 06:27:55;;;;;;;12.23;7.23;;;;;;;-143.21;87.84;72805.97;5032538;28;20332;-76
2023/12/06 06:30:22;;;;;;;13.83;7.80;;;;;;;-143.21;87.90;72807.97;5033017;28;20195;-77
2023/12/06 06:32:49;;;;;;;19.43;8.27;;;;;;;-143.21;87.61;72798.03;5032952;28;20221;-77
2023/12/06 06:35:15;;;;;;;14.57;7.77;;;;;;;-143.21;87.86;72794.06;5032566;28;20198;-76
2023/12/06 06:37:42;;;;;;;15.07;8.30;;;;;;;-143.21;88.08;72796.06;5028147;28;20565;-76
2023/12/06 06:40:10;;;;;;;15.60;9.10;;;;;;;-143.21;88.27;72805.97;5031671;28;20657;-76
2023/12/06 06:42:37;;;;;;;12.33;7.63;;;;;;;-143.21;88.01;72796.06;5032461;28;20640;-76
2023/12/06 06:45:07;;;;;;;12.20;7.10;;;;;;;-143.21;88.29;72788.13;5032577;28;20618;-78
2023/12/06 06:47:33;;;;;;;13.00;7.57;;;;;;;-143.21;88.46;72804.00;5032188;28;20213;-77
2023/12/06 06:50:00;;;;;;;12.87;7.33;;;;;;;-143.21;87.93;72841.69;5032358;28;20260;-76
2023/12/06 06:52:27;;;;;;;12.27;7.33;;;;;;;-143.21;88.94;72871.44;5031085;28;20239;-77
2023/12/06 06:54:54;;;;;;;13.63;7.93;;;;;;;-143.21;90.16;72867.47;5031902;28;20206;-78
2023/12/06 06:57:21;;;;;;;14.40;7.77;;;;;;;-143.21;90.70;72853.56;5031933;28;20611;-77
2023/12/06 06:59:47;;;;;;;13.90;7.47;;;;;;;-143.21;91.05;72851.59;5031646;28;20193;-77
2023/12/06 07:02:16;;;;;;;13.20;7.90;;;;;;;-143.21;90.70;72831.75;5031839;28;20213;-77
2023/12/06 07:04:43;;;;;;;15.93;7.37;;;;;;;-143.21;90.80;72819.84;5031960;28;20301;-77
2023/12/06 07:07:10;;;;;;;12.47;7.40;;;;;;;-143.21;90.52;72809.94;5031659;28;20202;-76
2023/12/06 07:09:37;;;;;;;11.70;7.60;;;;;;;-143.21;90.39;72811.94;5031676;28;20226;-77
2023/12/06 07:12:04;;;;;;;14.73;8.03;;;;;;;-143.21;89.83;72800.03;5032062;28;20231;-76
2023/12/06 07:14:31;;;;;;;18.47;7.83;;;;;;;-143.21;89.13;72802.00;5031908;28;20201;-77
2023/12/06 07:16:59;;;;;;;14.63;8.30;;;;;;;-143.21;89.50;72798.03;5032044;28;20198;-76
2023/12/06 07:19:27;;;;;;;11.47;7.60;;;;;;;-143.21;89.12;72800.03;5031947;28;20241;-76
2023/12/06 07:21:54;;;;;;;19.13;8.63;;;;;;;-143.21;89.02;72794.06;5031557;28;20209;-76
2023/12/06 07:24:21;;;;;;;12.37;8.07;;;;;;;-143.21;89.14;72802.00;5031765;28;20195;-76
2023/12/06 07:26:48;;;;;;;16.17;8.37;;;;;;;-143.21;89.48;72798.03;5031980;28;20680;-76
2023/12/06 07:29:14;;;;;;;14.50;9.10;;;;;;;-143.21;89.38;72804.00;5031924;28;20226;-76
2023/12/06 07:31:42;;;;;;;15.30;8.37;;;;;;;-143.21;89.85;72807.97;5031744;28;20199;-76
2023/12/06 07:34:09;;;;;;;14.80;8.40;;;;;;;-143.21;90.03;72800.03;5032168;28;20284;-76
2023/12/06 07:36:38;;;;;;;16.80;9.33;;;;;;;-143.21;89.69;72794.06;5031493;28;20198;-76
2023/12/06 07:39:05;;;;;;;18.00;9.20;;;;;;;-143.21;89.65;72804.00;5031849;28;20195;-76
2023/12/06 07:41:32;;;;;;;15.50;8.57;;;;;;;-143.21;88.22;72823.81;5031573;28;20202;-76
2023/12/06 07:43:59;;;;;;;16.60;8.70;;;;;;;-143.21;88.03;72853.56;5031802;28;20594;-76
2023/12/06 07:46:26;;;;;;;13.53;8.90;;;;;;;-143.21;89.39;72851.59;5031762;28;20206;-76
2023/12/06 07:48:53;;;;;;;14.07;8.90;;;;;;;-143.21;90.74;72839.69;5031618;28;20225;-76
2023/12/06 07:51:20;;;;;;;16.70;8.87;;;;;;;-143.21;91.02;72829.78;5030701;28;20204;-76
2023/12/06 07:53:48;;;;;;;14.57;8.90;;;;;;;-143.21;91.58;72811.94;5031652;28;20199;-76
2023/12/06 07:56:16;;;;;;;16.20;8.90;;;;;;;-143.21;91.47;72804.00;5031046;28;20194;-75
2023/12/06 07:58:43;;;;;;;17.87;8.60;;;;;;;-143.21;90.55;72782.16;5031429;28;20191;-76
2023/12/06 08:01:09;;;;;;;15.67;9.07;;;;;;;-143.21;90.42;72772.25;5030916;28;20191;-76
2023/12/06 08:03:37;;;;;;;14.57;8.90;;;;;;;-143.21;90.20;72774.25;5030999;28;20194;-76
2023/12/06 08:06:06;;;;;;;14.27;8.77;;;;;;;-143.21;90.11;72774.25;5030790;28;20217;-77
2023/12/06 08:08:33;;;;;;;15.57;9.10;;;;;;;-143.21;90.23;72762.34;5030825;28;20225;-76
2023/12/06 08:11:02;;;;;;;14.17;8.67;;;;;;;-143.21;90.00;72764.31;5030483;28;20254;-76
2023/12/06 08:13:29;;;;;;;17.80;8.50;;;;;;;-143.21;90.11;72770.28;5031093;28;20216;-77
2023/12/06 08:15:56;;;;;;;13.50;7.87;;;;;;;-143.21;89.65;72764.31;5031244;28;20264;-76
2023/12/06 08:18:23;;;;;;;12.23;7.90;;;;;;;-143.21;89.76;72762.34;5030759;28;20202;-76
2023/12/06 08:20:50;;;;;;;16.13;8.23;;;;;;;-143.21;89.50;72764.31;5030963;28;20205;-76
2023/12/06 08:23:16;;;;;;;17.20;8.00;;;;;;;-143.21;89.04;72760.34;5031130;28;20195;-76
2023/12/06 08:25:43;;;;;;;12.67;8.07;;;;;;;-143.21;89.12;72772.25;5031334;28;20199;-77
2023/12/06 08:28:11;;;;;;;13.80;8.17;;;;;;;-143.21;89.58;72776.22;5030904;28;20197;-76
2023/12/06 08:30:41;;;;;;;18.40;11.20;;;;;;;-143.21;90.11;72778.22;5031582;28;20198;-87
2023/12/06 08:33:11;;;;;;;14.17;8.57;;;;;;;-143.21;89.89;72766.31;5032164;28;20218;-88
2023/12/06 08:35:39;;;;;;;13.80;8.07;;;;;;;-143.21;89.61;72774.25;5031612;28;20249;-88
2023/12/06 08:38:06;;;;;;;15.43;8.20;;;;;;;-143.21;89.49;72786.13;5031666;28;20285;-88
2023/12/06 08:40:33;;;;;;;17.07;8.67;;;;;;;-143.21;88.98;72813.91;5032087;28;20209;-91
2023/12/06 08:43:00;;;;;;;15.07;8.60;;;;;;;-143.21;90.07;72831.75;5033147;28;20206;-91
2023/12/06 08:45:28;;;;;;;15.50;8.50;;;;;;;-143.21;91.79;72825.81;5032285;28;20272;-91
2023/12/06 08:47:57;;;;;;;16.87;8.80;;;;;;;-143.21;92.60;72817.88;5032626;28;20215;-90
2023/12/06 08:50:25;;;;;;;16.67;9.20;;;;;;;-143.21;92.57;72802.00;5031455;28;20225;-91
2023/12/06 08:52:52;;;;;;;16.20;9.33;;;;;;;-143.21;92.31;72778.22;5032469;28;20205;-91
2023/12/06 08:55:19;;;;;;;14.80;9.20;;;;;;;-143.21;92.17;72772.25;5032342;28;20190;-90
2023/12/06 08:57:46;;;;;;;17.93;9.00;;;;;;;-143.21;91.59;72754.41;5032880;28;20195;-90
2023/12/06 09:00:14;;;;;;;16.30;8.70;;;;;;;-143.21;91.41;72752.41;5032366;28;20203;-90
2023/12/06 09:02:43;;;;;;;15.67;9.27;;;;;;;-143.21;91.13;72746.47;5032417;28;20673;-90
2023/12/06 09:05:11;;;;;;;14.70;9.27;;;;;;;-143.21;91.35;72738.53;5032320;28;20203;-91
2023/12/06 09:07:38;;;;;;;15.57;8.80;;;;;;;-143.21;90.96;72734.56;5032243;28;20221;-87
2023/12/06 09:10:06;;;;;;;14.47;8.73;;;;;;;-143.21;90.58;72718.69;5031208;28;20225;-85
2023/12/06 09:12:33;;;;;;;18.53;9.53;;;;;;;-143.21;89.48;72710.78;5031113;28;20233;-86
2023/12/06 09:15:00;;;;;;;19.03;9.30;;;;;;;-143.21;89.32;72726.63;5033723;28;20214;-85
2023/12/06 09:17:28;;;;;;;17.27;9.13;;;;;;;-143.21;90.03;72712.75;5035819;28;20195;-87
2023/12/06 09:19:56;;;;;;;16.00;9.63;;;;;;;-143.21;89.35;72702.84;5036376;28;20198;-87
2023/12/06 09:22:23;;;;;;;19.00;9.10;;;;;;;-143.21;89.45;72704.81;5034485;28;20669;-83
2023/12/06 09:24:50;;;;;;;16.87;8.63;;;;;;;-143.21;89.38;72712.75;5017872;28;20207;-82
2023/12/06 09:27:17;;;;;;;14.07;8.87;;;;;;;-143.21;88.97;72738.53;5027799;28;20206;-82
2023/12/06 09:29:45;;;;;;;15.40;8.77;;;;;;;-143.21;89.97;72756.38;5032372;28;20245;-81
2023/12/06 09:32:12;;;;;;;13.30;8.50;;;;;;;-143.21;91.39;72742.50;5026892;28;20268;-82
2023/12/06 09:34:39;;;;;;;16.67;9.50;;;;;;;-143.21;92.20;72730.59;5029012;28;20249;-81
2023/12/06 09:37:07;;;;;;;17.23;9.30;;;;;;;-143.21;92.65;72712.75;5028791;28;20219;-87
2023/12/06 09:39:34;;;;;;;15.60;9.03;;;;;;;-143.21;92.27;72696.88;5016437;28;20289;-87
2023/12/06 09:42:03;;;;;;;13.47;8.50;;;;;;;-143.21;91.87;72694.91;5031917;28;20207;-88
2023/12/06 09:44:31;;;;;;;15.27;9.50;;;;;;;-143.21;92.10;72688.94;5034852;28;20767;-89
2023/12/06 09:47:00;;;;;;;14.97;9.03;;;;;;;-143.21;91.69;72681.03;5037383;28;20199;-91
2023/12/06 09:49:27;;;;;;;14.40;8.83;;;;;;;-143.21;91.40;72665.16;5034996;28;20226;-88
2023/12/06 09:51:58;;;;;;;15.37;8.00;;;;;;;-143.21;90.71;72649.28;5034987;28;20294;-87
2023/12/06 09:54:26;;;;;;;14.60;8.57;;;;;;;-143.21;90.47;72641.34;5035077;28;20682;-88
2023/12/06 09:56:54;;;;;;;14.53;8.67;;;;;;;-143.21;89.65;72631.44;5036282;28;20194;-89
2023/12/06 09:59:21;;;;;;;13.57;7.80;;;;;;;-143.21;88.79;72623.50;5035319;28;20717;-89
2023/12/06 10:01:48;;;;;;;12.80;8.13;;;;;;;-143.21;88.47;72623.50;5036870;28;20217;-89
2023/12/06 10:04:15;;;;;;;14.13;7.90;;;;;;;-143.21;88.74;72619.53;5036195;28;20183;-88
2023/12/06 10:06:43;;;;;;;13.00;7.60;;;;;;;-143.21;88.28;72609.63;5035492;28;20215;-90
2023/12/06 10:09:10;;;;;;;12.00;7.07;;;;;;;-143.21;88.01;72615.56;5035106;28;20230;-88
2023/12/06 10:11:38;;;;;;;14.83;8.23;;;;;;;-143.21;88.08;72651.28;5034104;28;20618;-90
2023/12/06 10:14:06;;;;;;;17.80;8.90;;;;;;;-143.21;87.67;72677.06;5034613;28;20187;-91
2023/12/06 10:16:37;;;;;;;17.83;8.90;;;;;;;-143.21;88.77;72683.00;5034638;28;20203;-89
2023/12/06 10:19:05;;;;;;;13.03;9.00;;;;;;;-143.21;89.69;72673.09;5035306;28;20229;-88
2023/12/06 10:21:32;;;;;;;14.63;8.17;;;;;;;-143.21;90.33;72655.25;5034989;28;20198;-89
2023/12/06 10:24:01;;;;;;;12.17;8.10;;;;;;;-143.21;90.05;72639.38;5026731;28;20194;-86
2023/12/06 10:26:28;;;;;;;11.93;7.50;;;;;;;-143.21;89.97;72639.38;5028621;28;20203;-83
2023/12/06 10:28:57;;;;;;;10.83;7.27;;;;;;;-143.21;90.08;72629.44;5032753;28;20608;-84
2023/12/06 10:31:24;;;;;;;11.33;7.57;;;;;;;-143.21;89.90;72639.38;5034041;28;20199;-85
2023/12/06 10:33:57;;;;;;;11.53;7.80;;;;;;;-143.21;89.83;72635.41;5033468;28;20218;-84
2023/12/06 10:36:26;;;;;;;13.17;7.23;;;;;;;-143.21;89.49;72629.44;5033475;28;20199;-84
2023/12/06 10:38:55;;;;;;;11.53;7.13;;;;;;;-143.21;89.27;72613.59;5033035;28;20206;-85
2023/12/06 10:41:25;;;;;;;10.73;7.07;;;;;;;-143.21;89.04;72613.59;5033240;28;20198;-84
2023/12/06 10:43:58;;;;;;;10.17;6.87;;;;;;;-143.21;88.52;72601.69;5033378;28;20204;-84
2023/12/06 10:46:27;;;;;;;10.57;6.20;;;;;;;-143.21;88.73;72605.66;5033403;28;20684;-84
2023/12/06 10:48:55;;;;;;;8.57;5.90;;;;;;;-143.21;87.96;72627.47;5032910;28;20688;-85
2023/12/06 10:51:24;;;;;;;9.80;6.57;;;;;;;-143.21;88.74;72671.09;5033307;28;20222;-85
2023/12/06 10:53:53;;;;;;;9.73;5.73;;;;;;;-143.21;88.85;72690.94;5033140;28;20194;-85
2023/12/06 10:56:21;;;;;;;9.27;6.30;;;;;;;-143.21;90.05;72698.88;5033078;28;20190;-84
2023/12/06 10:58:51;;;;;;;8.67;5.33;;;;;;;-143.21;89.82;72700.84;5032980;28;20197;-84
2023/12/06 11:01:18;;;;;;;7.83;5.30;;;;;;;-143.21;91.37;72692.91;5034742;28;20229;-84
2023/12/06 11:03:47;;;;;;;6.17;4.50;;;;;;;-143.21;91.59;72683.00;5036436;28;20199;-84
2023/12/06 11:06:26;;;;;;;7.03;5.00;;;;;;;-143.21;91.29;72665.16;5033987;28;20205;-83
2023/12/06 11:09:13;;;;;;;7.97;4.90;;;;;;;-143.21;91.04;72649.28;5034417;28;20656;-85
2023/12/06 11:11:51;;;;;;;8.47;5.40;;;;;;;-143.21;90.80;72633.41;5032642;28;20239;-84
2023/12/06 11:15:15;;;;;;;8.13;5.53;;;;;;;-143.21;89.74;72617.56;5035592;28;20529;-84